Time;durP1;ratioP1;P1;durP2;ratioP2;P2;SDS_P1;SDS_P2;PMS_P1;PMS_P2;Temp;Humidity;BMP_temperature;BMP_pressure;BME280_temperature;BME280_humidity;BME280_pressure;Samples;Min_cycle;Max_cycle;Signal;HPM_P1;HPM_P2
2022/04/27 00:01:24;;;;;;;107.20;79.80;;;;;;;8.66;67.29;100771.85;110228;1256;21964;-75
2022/04/27 00:03:53;;;;;;;100.50;78.20;;;;;;;8.61;67.42;100772.88;109936;1260;23781;-75
2022/04/27 00:06:23;;;;;;;101.20;77.00;;;;;;;8.57;67.55;100774.66;109602;1260;23580;-75
2022/04/27 00:08:52;;;;;;;98.50;76.00;;;;;;;8.54;67.70;100775.84;109496;1257;21970;-75
2022/04/27 00:11:21;;;;;;;91.00;71.60;;;;;;;8.50;67.64;100777.46;110053;1257;22729;-75
2022/04/27 00:13:50;;;;;;;93.60;73.30;;;;;;;8.45;67.64;100777.89;110366;1257;22589;-75
2022/04/27 00:16:20;;;;;;;95.10;73.50;;;;;;;8.42;67.73;100780.33;110244;1257;23655;-76
2022/04/27 00:18:50;;;;;;;101.40;74.50;;;;;;;8.38;67.83;100779.45;109942;1260;22430;-76
2022/04/27 00:21:22;;;;;;;106.30;76.30;;;;;;;8.34;67.80;100782.14;109456;1260;21985;-75
2022/04/27 00:23:53;;;;;;;102.90;79.50;;;;;;;8.30;67.99;100785.83;110372;1256;23615;-75
2022/04/27 00:26:24;;;;;;;104.40;77.00;;;;;;;8.26;68.14;100784.59;110020;1256;23111;-75
2022/04/27 00:28:53;;;;;;;98.50;71.50;;;;;;;8.23;68.16;100785.36;109988;1256;23042;-74
2022/04/27 00:31:24;;;;;;;100.50;71.30;;;;;;;8.20;68.28;100787.95;110171;1259;23819;-74
2022/04/27 00:33:53;;;;;;;94.60;70.60;;;;;;;8.18;68.36;100787.30;110009;1259;22040;-76
2022/04/27 00:36:23;;;;;;;95.80;72.50;;;;;;;8.16;68.52;100788.81;110215;1254;22198;-75
2022/04/27 00:38:56;;;;;;;91.40;70.20;;;;;;;8.16;68.67;100786.58;110534;1254;22026;-75
2022/04/27 00:41:28;;;;;;;90.50;67.10;;;;;;;8.16;68.70;100788.70;110534;1254;24391;-76
2022/04/27 00:43:57;;;;;;;88.50;70.40;;;;;;;8.15;68.86;100788.21;110501;1254;22028;-76
2022/04/27 00:46:33;;;;;;;88.80;70.00;;;;;;;8.14;68.90;100785.50;110452;1254;23815;-76
2022/04/27 00:49:12;;;;;;;87.90;69.80;;;;;;;8.10;68.82;100784.64;110348;1253;22205;-75
2022/04/27 00:51:46;;;;;;;82.10;67.50;;;;;;;8.05;68.97;100782.80;110681;1254;24287;-74
2022/04/27 00:54:18;;;;;;;93.10;72.70;;;;;;;8.02;68.89;100778.20;110251;1254;21963;-74
2022/04/27 00:56:49;;;;;;;92.90;69.90;;;;;;;7.98;68.91;100778.67;110511;1250;21955;-75
2022/04/27 00:59:19;;;;;;;90.70;70.20;;;;;;;7.96;68.87;100776.47;110167;1259;23090;-76
2022/04/27 01:01:50;;;;;;;84.90;68.40;;;;;;;7.94;68.98;100778.56;109840;1259;23678;-75
2022/04/27 01:04:19;;;;;;;80.80;66.00;;;;;;;7.93;69.02;100780.98;109942;1259;21979;-75
2022/04/27 01:06:49;;;;;;;88.40;67.60;;;;;;;7.92;69.08;100786.85;110173;1259;24285;-74
2022/04/27 01:09:21;;;;;;;81.50;64.60;;;;;;;7.91;69.08;100792.37;110142;1259;22070;-75
2022/04/27 01:11:53;;;;;;;88.20;70.00;;;;;;;7.90;69.15;100791.62;110219;1258;22213;-75
2022/04/27 01:14:22;;;;;;;82.80;66.30;;;;;;;7.89;69.28;100791.65;110093;1259;21966;-76
2022/04/27 01:17:01;;;;;;;86.10;63.50;;;;;;;7.88;69.36;100794.86;110031;1260;21968;-76
2022/04/27 01:19:31;;;;;;;83.50;65.00;;;;;;;7.88;69.32;100800.56;109956;1259;22740;-75
2022/04/27 01:22:03;;;;;;;84.90;63.30;;;;;;;7.86;69.37;100802.95;109586;1263;22030;-76
2022/04/27 01:24:37;;;;;;;81.20;63.70;;;;;;;7.85;69.42;100804.45;110021;1257;22745;-75
2022/04/27 01:27:10;;;;;;;80.90;65.40;;;;;;;7.85;69.60;100802.17;110364;1257;23705;-76
2022/04/27 01:29:41;;;;;;;80.30;65.90;;;;;;;7.85;69.60;100805.69;109906;1257;22020;-76
2022/04/27 01:32:15;;;;;;;79.60;64.30;;;;;;;7.85;69.54;100810.13;110277;1258;21986;-76
2022/04/27 01:34:46;;;;;;;76.80;61.40;;;;;;;7.84;69.63;100810.01;110237;1257;23636;-76
2022/04/27 01:40:06;;;;;;;75.70;63.10;;;;;;;7.86;69.90;100810.21;110313;1251;23818;-76
2022/04/27 01:42:37;;;;;;;81.20;62.60;;;;;;;7.87;70.06;100811.48;110194;1256;23078;-76
2022/04/27 01:45:07;;;;;;;74.70;60.60;;;;;;;7.89;70.16;100812.52;109934;1259;21963;-75
2022/04/27 01:47:43;;;;;;;84.80;65.00;;;;;;;7.90;70.14;100810.30;109659;1258;23679;-75
2022/04/27 01:50:15;;;;;;;79.80;63.90;;;;;;;7.91;70.17;100808.48;109401;1260;21981;-75
2022/04/27 01:55:37;;;;;;;74.00;61.90;;;;;;;7.91;70.13;100807.77;109091;1265;23688;-75
2022/04/27 01:58:08;;;;;;;72.20;57.90;;;;;;;7.91;70.11;100811.84;109292;1265;22919;-76
2022/04/27 02:00:39;;;;;;;89.50;65.90;;;;;;;7.90;70.07;100813.10;109294;1263;22153;-76
2022/04/27 02:03:08;;;;;;;85.60;64.70;;;;;;;7.89;70.08;100815.16;109382;1261;21983;-74
2022/04/27 02:05:40;;;;;;;85.60;64.60;;;;;;;7.87;69.97;100814.33;109821;1260;21990;-76
2022/04/27 02:08:12;;;;;;;76.10;60.40;;;;;;;7.83;69.95;100813.42;109786;1260;21972;-75
2022/04/27 02:10:43;;;;;;;81.60;62.90;;;;;;;7.81;70.14;100808.02;109905;1256;23108;-76
2022/04/27 02:13:18;;;;;;;76.40;60.40;;;;;;;7.79;70.15;100809.90;110289;1253;21970;-75
2022/04/27 02:15:47;;;;;;;85.40;64.80;;;;;;;7.77;70.05;100804.66;110485;1253;24134;-75
2022/04/27 02:18:27;;;;;;;85.50;62.10;;;;;;;7.75;70.13;100809.59;110639;1253;22825;-74
2022/04/27 02:21:00;;;;;;;76.50;61.60;;;;;;;7.73;70.11;100812.74;110610;1250;23707;-74
2022/04/27 02:23:29;;;;;;;74.70;61.10;;;;;;;7.71;70.23;100812.73;110757;1250;23056;-75
2022/04/27 02:26:01;;;;;;;83.40;61.90;;;;;;;7.69;70.31;100810.64;110754;1251;23777;-75
2022/04/27 02:28:31;;;;;;;75.30;61.00;;;;;;;7.69;70.40;100808.77;110696;1251;24287;-75
2022/04/27 02:31:01;;;;;;;77.30;62.60;;;;;;;7.68;70.54;100807.05;110799;1251;22398;-75
2022/04/27 02:33:32;;;;;;;81.40;67.30;;;;;;;7.66;70.40;100810.00;110739;1251;21959;-75
2022/04/27 02:36:05;;;;;;;74.80;61.10;;;;;;;7.66;70.48;100813.45;110187;1256;23617;-75
2022/04/27 02:38:37;;;;;;;78.80;62.70;;;;;;;7.64;70.58;100817.92;109521;1261;21972;-75
2022/04/27 02:41:09;;;;;;;76.30;62.40;;;;;;;7.62;70.61;100818.42;109928;1260;23613;-76
2022/04/27 02:43:39;;;;;;;80.80;64.60;;;;;;;7.61;70.77;100817.84;109863;1260;22697;-75
2022/04/27 02:46:13;;;;;;;83.70;65.20;;;;;;;7.60;70.77;100820.74;109810;1262;23088;-74
2022/04/27 02:51:51;;;;;;;81.60;66.00;;;;;;;7.54;70.80;100816.16;109842;1260;23073;-75
2022/04/27 02:54:44;;;;;;;80.40;64.60;;;;;;;7.52;70.98;100819.67;109945;1256;21975;-74
2022/04/27 02:57:16;;;;;;;77.50;63.90;;;;;;;7.51;70.99;100825.19;110539;1250;22407;-75
2022/04/27 02:59:45;;;;;;;90.50;67.80;;;;;;;7.51;70.94;100825.20;110879;1250;22288;-75
2022/04/27 03:02:15;;;;;;;108.20;67.50;;;;;;;7.51;71.00;100829.44;110754;1251;21960;-74
2022/04/27 03:04:47;;;;;;;89.10;64.20;;;;;;;7.47;70.77;100823.61;110699;1250;23608;-74
2022/04/27 03:07:20;;;;;;;80.80;65.30;;;;;;;7.42;70.84;100825.16;110671;1250;21950;-75
2022/04/27 03:09:53;;;;;;;89.20;64.20;;;;;;;7.42;71.06;100827.58;110960;1250;21973;-75
2022/04/27 03:12:37;;;;;;;;;;;;;;;7.42;71.18;100827.80;110725;1250;24259;-74
2022/04/27 03:15:08;;;;;;;116.30;83.50;;;;;;;7.32;71.14;100832.11;110807;1250;22048;-73
2022/04/27 03:17:41;;;;;;;112.90;85.60;;;;;;;7.28;71.08;100833.90;110198;1256;22031;-74
2022/04/27 03:20:12;;;;;;;87.50;71.80;;;;;;;7.27;71.15;100835.22;110318;1256;23718;-74
2022/04/27 03:22:41;;;;;;;88.80;69.00;;;;;;;7.25;71.11;100837.64;110338;1257;23675;-74
2022/04/27 03:25:13;;;;;;;87.40;69.30;;;;;;;7.24;71.08;100838.65;110436;1256;24270;-74
2022/04/27 03:27:43;;;;;;;93.10;70.50;;;;;;;7.22;71.07;100844.60;110235;1256;22972;-73
2022/04/27 03:30:14;;;;;;;89.20;71.60;;;;;;;7.19;71.06;100846.27;110310;1256;21964;-74
2022/04/27 03:32:51;;;;;;;81.90;66.20;;;;;;;7.16;71.14;100844.66;110285;1256;23042;-75
2022/04/27 03:35:20;;;;;;;74.60;62.60;;;;;;;7.14;71.27;100846.37;110296;1251;23042;-75
2022/04/27 03:37:49;;;;;;;80.00;66.00;;;;;;;7.12;71.37;100846.36;110686;1251;21965;-75
2022/04/27 03:40:21;;;;;;;97.80;87.10;;;;;;;7.11;71.43;100849.77;110599;1253;23672;-75
2022/04/27 03:42:51;;;;;;;118.80;101.00;;;;;;;7.04;71.10;100854.20;110521;1254;22898;-75
2022/04/27 03:45:21;;;;;;;95.90;84.00;;;;;;;6.98;71.17;100858.56;110513;1251;23701;-75
2022/04/27 03:47:51;;;;;;;158.40;127.80;;;;;;;6.97;71.44;100869.17;110607;1251;21980;-75
2022/04/27 03:50:22;;;;;;;117.10;90.80;;;;;;;6.97;71.57;100879.54;110199;1257;24311;-75
2022/04/27 03:52:53;;;;;;;98.00;75.80;;;;;;;6.94;71.46;100882.24;110195;1260;21946;-76
2022/04/27 03:55:28;;;;;;;89.60;70.30;;;;;;;6.90;71.42;100876.80;110134;1259;24181;-75
2022/04/27 03:57:57;;;;;;;;;;;;;;;6.84;71.36;100875.77;110004;1259;23060;-75
2022/04/27 04:00:26;;;;;;;161.80;120.60;;;;;;;6.72;71.77;100878.13;109832;1259;24289;-75
2022/04/27 04:03:05;;;;;;;165.00;122.60;;;;;;;6.74;72.21;100884.60;109982;1259;21967;-76
2022/04/27 04:05:44;;;;;;;141.40;103.50;;;;;;;6.85;72.71;100889.66;109217;1262;21985;-74
2022/04/27 04:08:13;;;;;;;99.10;78.30;;;;;;;6.97;73.05;100887.95;109658;1260;23777;-75
2022/04/27 04:10:45;;;;;;;84.20;65.90;;;;;;;7.11;73.11;100892.73;110024;1259;21969;-76
2022/04/27 04:13:17;;;;;;;101.50;77.40;;;;;;;7.20;72.93;100893.16;110166;1259;22074;-75
2022/04/27 04:15:52;;;;;;;100.20;67.20;;;;;;;7.29;73.01;100894.05;110113;1260;22008;-74
2022/04/27 04:18:49;;;;;;;78.20;63.70;;;;;;;7.43;73.15;100900.27;109281;1264;23015;-75
2022/04/27 04:21:38;;;;;;;84.30;65.90;;;;;;;7.55;73.02;100907.59;109581;1264;21969;-74
2022/04/27 04:24:28;;;;;;;76.00;56.80;;;;;;;7.67;72.85;100908.33;109981;1257;23684;-73
2022/04/27 04:29:45;;;;;;;74.60;56.50;;;;;;;7.86;72.07;100908.79;110236;1257;21983;-74
2022/04/27 04:32:16;;;;;;;77.80;56.10;;;;;;;7.90;71.61;100910.86;109854;1260;22943;-75
2022/04/27 04:35:14;;;;;;;72.10;55.90;;;;;;;7.88;71.19;100919.90;109863;1259;21967;-74
2022/04/27 04:37:44;;;;;;;69.60;54.90;;;;;;;7.86;70.73;100922.79;110212;1256;23757;-75
2022/04/27 04:40:19;;;;;;;66.40;51.70;;;;;;;7.83;70.51;100928.27;110456;1256;23609;-75
2022/04/27 04:42:52;;;;;;;59.70;50.90;;;;;;;7.84;70.53;100929.65;109964;1260;22769;-75
2022/04/27 04:45:21;;;;;;;70.10;49.50;;;;;;;7.88;70.61;100929.10;109681;1260;22020;-75
2022/04/27 04:48:09;;;;;;;67.90;51.70;;;;;;;7.97;71.00;100935.80;109963;1260;21986;-75
2022/04/27 04:51:05;;;;;;;61.00;50.50;;;;;;;8.09;71.05;100940.68;110174;1257;21967;-75
2022/04/27 04:53:44;;;;;;;62.90;49.50;;;;;;;8.21;71.00;100945.73;110302;1256;21982;-74
2022/04/27 04:56:36;;;;;;;;;;;;;;;8.31;70.65;100945.54;110320;1257;21964;-74
2022/04/27 04:59:19;;;;;;;67.50;48.90;;;;;;;8.32;70.45;100948.98;110367;1257;24542;-75
2022/04/27 05:02:24;;;;;;;69.30;50.60;;;;;;;8.41;70.48;100950.96;110092;1257;23681;-74
2022/04/27 05:05:05;;;;;;;58.10;49.50;;;;;;;8.53;70.40;100956.27;110217;1257;21961;-74
2022/04/27 05:08:06;;;;;;;59.40;51.80;;;;;;;8.63;70.22;100960.38;109609;1258;21973;-75
2022/04/27 05:10:47;;;;;;;73.20;54.80;;;;;;;8.70;70.01;100966.81;110452;1257;21948;-75
2022/04/27 05:13:28;;;;;;;76.20;54.50;;;;;;;8.76;69.79;100971.91;110200;1257;21964;-74
2022/04/27 05:16:30;;;;;;;64.00;51.00;;;;;;;8.83;69.74;100972.25;109360;1257;21957;-75
2022/04/27 05:19:17;;;;;;;69.60;51.50;;;;;;;8.93;69.59;100974.89;110330;1253;22393;-75
2022/04/27 05:22:05;;;;;;;72.00;49.70;;;;;;;9.03;69.40;100974.09;110720;1253;21958;-75
2022/04/27 05:24:49;;;;;;;95.40;55.10;;;;;;;9.13;68.97;100973.21;110951;1250;22019;-75
2022/04/27 05:27:28;;;;;;;79.50;55.30;;;;;;;9.20;68.48;100977.13;110757;1250;22070;-75
2022/04/27 05:33:38;;;;;;;85.60;56.80;;;;;;;9.33;68.18;100979.70;110875;1251;21954;-76
2022/04/27 05:36:14;;;;;;;77.60;56.20;;;;;;;9.40;68.05;100984.16;110600;1252;24282;-73
2022/04/27 05:39:03;;;;;;;64.60;52.20;;;;;;;9.46;67.83;100988.54;110591;1252;22051;-75
2022/04/27 05:41:56;;;;;;;70.50;56.20;;;;;;;9.55;67.89;100988.75;110523;1252;23797;-77
2022/04/27 05:44:54;;;;;;;68.70;56.20;;;;;;;9.65;67.64;100987.98;110302;1252;22043;-77
2022/04/27 05:47:34;;;;;;;74.80;53.60;;;;;;;9.74;67.45;100987.96;110725;1251;22006;-74
2022/04/27 05:50:40;;;;;;;;;;;;;;;;;;;;;
2022/04/27 05:53:41;;;;;;;66.30;53.10;;;;;;;10.08;67.32;100995.27;110150;1259;22002;-76
2022/04/27 05:56:30;;;;;;;;;;;;;;;10.24;66.88;100996.94;110314;1259;21973;-77
2022/04/27 05:59:20;;;;;;;68.00;54.20;;;;;;;10.35;67.13;100998.31;109638;1263;23032;-77
2022/04/27 06:02:24;;;;;;;66.90;55.90;;;;;;;10.52;66.61;100997.88;109546;1263;23086;-75
2022/04/27 06:04:58;;;;;;;70.90;53.50;;;;;;;10.61;65.75;101000.16;109369;1263;23146;-74
2022/04/27 06:07:35;;;;;;;65.80;51.50;;;;;;;10.73;65.51;101004.81;108966;1267;22054;-75
2022/04/27 06:10:11;;;;;;;63.40;52.00;;;;;;;10.86;65.24;101010.88;108952;1267;21995;-78
2022/04/27 06:12:47;;;;;;;61.30;51.90;;;;;;;11.00;64.87;101015.41;109048;1267;22048;-75
2022/04/27 06:15:40;;;;;;;72.40;56.40;;;;;;;11.16;64.42;101018.63;109465;1262;21986;-75
2022/04/27 06:18:27;;;;;;;57.70;50.90;;;;;;;11.32;64.19;101024.02;110139;1257;22273;-74
2022/04/27 06:20:58;;;;;;;54.90;47.90;;;;;;;11.48;63.74;101027.45;109967;1259;22757;-74
2022/04/27 06:23:30;;;;;;;47.50;42.20;;;;;;;11.60;63.15;101032.05;110188;1257;22740;-77
2022/04/27 06:26:02;;;;;;;59.50;41.60;;;;;;;11.70;62.81;101035.99;110580;1251;23457;-79
2022/04/27 06:28:42;;;;;;;44.50;39.00;;;;;;;11.81;62.71;101034.67;110585;1251;21972;-80
2022/04/27 06:31:12;;;;;;;47.00;38.00;;;;;;;11.95;62.35;101032.36;111051;1250;22328;-79
2022/04/27 06:33:42;;;;;;;44.70;38.40;;;;;;;12.04;61.42;101034.62;110906;1251;21971;-77
2022/04/27 06:36:15;;;;;;;46.70;40.30;;;;;;;12.08;60.89;101035.77;110845;1251;21961;-80
2022/04/27 06:38:44;;;;;;;49.00;42.60;;;;;;;12.11;60.23;101039.06;110887;1251;23739;-79
2022/04/27 06:41:28;;;;;;;64.50;43.70;;;;;;;12.08;59.80;101039.48;110819;1251;23053;-78
2022/04/27 06:44:16;;;;;;;44.80;37.40;;;;;;;12.02;59.54;101042.77;111051;1251;23713;-78
2022/04/27 06:47:04;;;;;;;36.50;32.50;;;;;;;12.01;59.87;101042.86;110280;1252;437217;-78
2022/04/27 06:49:54;;;;;;;43.10;35.80;;;;;;;12.11;60.17;101043.64;110190;1257;22040;-79
2022/04/27 06:53:00;;;;;;;48.50;36.80;;;;;;;12.20;60.09;101049.50;109738;1262;23858;-78
2022/04/27 06:55:50;;;;;;;43.40;37.90;;;;;;;12.34;60.24;101049.83;109435;1262;23775;-77
2022/04/27 06:58:58;;;;;;;45.30;37.50;;;;;;;12.45;59.85;101054.35;109038;1267;23110;-77
2022/04/27 07:01:33;;;;;;;41.20;35.50;;;;;;;12.54;59.55;101054.41;108767;1268;22101;-77
2022/04/27 07:04:14;;;;;;;38.50;33.40;;;;;;;12.68;59.52;101058.92;108825;1271;21991;-77
2022/04/27 07:06:47;;;;;;;37.10;33.30;;;;;;;12.84;59.50;101061.98;108752;1271;21982;-77
2022/04/27 07:09:21;;;;;;;45.00;33.40;;;;;;;13.05;59.37;101064.88;109118;1265;23718;-77
2022/04/27 07:12:02;;;;;;;41.80;34.90;;;;;;;13.28;59.13;101065.35;109134;1265;23084;-79
2022/04/27 07:14:34;;;;;;;39.40;35.10;;;;;;;13.63;59.25;101067.36;108748;1273;22005;-78
2022/04/27 07:17:06;;;;;;;43.60;34.30;;;;;;;14.00;58.60;101071.33;108155;1274;22049;-78
2022/04/27 07:19:36;;;;;;;36.20;32.30;;;;;;;14.29;57.23;101069.98;108562;1274;21990;-78
2022/04/27 07:22:12;;;;;;;31.80;28.40;;;;;;;14.48;55.89;101076.25;108464;1273;21962;-79
2022/04/27 07:24:44;;;;;;;34.20;29.20;;;;;;;14.59;54.95;101080.15;108583;1273;22451;-79
2022/04/27 07:27:15;;;;;;;32.10;28.80;;;;;;;14.65;54.22;101081.67;108621;1271;22368;-79
2022/04/27 07:29:55;;;;;;;37.20;31.60;;;;;;;14.74;53.95;101084.00;108845;1268;21989;-79
2022/04/27 07:32:28;;;;;;;30.70;27.60;;;;;;;14.84;53.57;101088.64;109059;1266;21978;-79
2022/04/27 07:35:00;;;;;;;28.40;25.50;;;;;;;14.87;52.58;101089.17;109337;1264;21980;-77
2022/04/27 07:37:29;;;;;;;35.80;31.80;;;;;;;14.81;52.16;101089.61;109473;1263;22505;-77
2022/04/27 07:40:10;;;;;;;41.80;37.30;;;;;;;14.78;51.88;101088.16;109902;1258;21982;-77
2022/04/27 07:42:42;;;;;;;29.30;26.20;;;;;;;14.78;51.95;101091.95;109993;1258;22082;-80
2022/04/27 07:45:19;;;;;;;31.20;27.80;;;;;;;14.80;51.92;101092.36;110424;1253;22051;-77
2022/04/27 07:47:54;;;;;;;29.80;26.60;;;;;;;14.74;51.16;101093.98;110695;1251;22127;-78
2022/04/27 07:50:26;;;;;;;34.20;27.90;;;;;;;14.69;51.09;101094.38;110007;1257;23078;-77
2022/04/27 07:53:10;;;;;;;30.80;25.10;;;;;;;14.65;51.16;101095.73;110218;1258;22032;-77
2022/04/27 07:55:45;;;;;;;27.80;24.60;;;;;;;14.67;51.17;101098.05;109581;1263;22732;-77
2022/04/27 07:58:14;;;;;;;28.50;24.60;;;;;;;14.66;50.71;101098.61;109660;1263;21997;-77
2022/04/27 08:00:43;;;;;;;29.70;25.70;;;;;;;14.62;50.40;101099.80;109290;1263;23699;-77
2022/04/27 08:03:13;;;;;;;29.00;25.20;;;;;;;14.59;50.04;101101.75;109236;1264;22771;-78
2022/04/27 08:06:00;;;;;;;30.40;27.10;;;;;;;14.55;50.20;101103.94;109280;1264;22227;-77
2022/04/27 08:08:58;;;;;;;30.10;25.60;;;;;;;14.59;50.21;101106.58;109781;1258;24357;-77
2022/04/27 08:11:48;;;;;;;31.60;25.00;;;;;;;14.68;50.65;101109.98;109857;1257;23036;-78
2022/04/27 08:14:25;;;;;;;33.40;27.20;;;;;;;14.84;50.84;101113.98;109171;1263;22759;-78
2022/04/27 08:17:17;;;;;;;;;;;;;;;15.05;50.71;101118.82;109269;1266;23596;-77
2022/04/27 08:21:13;;;;;;;28.90;24.50;;;;;;;15.13;50.21;101124.61;108894;1263;23643;-77
2022/04/27 08:22:44;;;;;;;30.80;27.60;;;;;;;15.25;50.40;101124.66;109504;1263;21981;-78
2022/04/27 08:25:23;;;;;;;28.20;25.30;;;;;;;15.49;50.58;101126.92;109269;1263;23013;-77
2022/04/27 08:27:55;;;;;;;25.00;22.60;;;;;;;15.80;50.59;101130.70;109457;1264;23646;-77
2022/04/27 08:30:24;;;;;;;26.60;23.80;;;;;;;16.11;49.74;101130.69;109178;1264;23101;-77
2022/04/27 08:32:59;;;;;;;27.80;24.00;;;;;;;16.35;48.57;101132.59;109706;1257;21985;-76
2022/04/27 08:35:29;;;;;;;29.30;24.70;;;;;;;16.58;48.18;101130.23;110008;1258;22011;-77
2022/04/27 08:38:09;;;;;;;37.10;25.70;;;;;;;17.08;48.84;101127.09;110249;1257;21980;-76
2022/04/27 08:40:45;;;;;;;29.10;23.90;;;;;;;17.82;48.72;101133.39;109358;1263;22468;-77
2022/04/27 08:43:14;;;;;;;124.50;34.40;;;;;;;18.56;46.74;101130.34;109637;1263;23733;-76
2022/04/27 08:45:45;;;;;;;30.00;21.00;;;;;;;19.19;44.85;101133.56;109831;1260;23721;-76
2022/04/27 08:48:17;;;;;;;17.20;14.90;;;;;;;19.74;43.60;101133.09;109987;1260;22438;-76
2022/04/27 08:50:47;;;;;;;17.50;15.70;;;;;;;20.22;41.08;101133.59;109911;1261;23074;-77
2022/04/27 08:53:16;;;;;;;17.10;14.40;;;;;;;20.66;39.51;101136.71;109479;1263;23696;-77
2022/04/27 08:55:45;;;;;;;18.00;15.30;;;;;;;21.07;38.36;101136.45;108949;1265;23142;-78
2022/04/27 08:58:17;;;;;;;14.70;11.30;;;;;;;21.41;36.86;101136.91;109138;1265;22048;-76
2022/04/27 09:01:06;;;;;;;16.00;10.30;;;;;;;21.75;36.01;101135.46;109103;1265;22847;-76
2022/04/27 09:03:38;;;;;;;10.60;9.40;;;;;;;22.17;34.86;101132.75;109189;1265;21971;-76
2022/04/27 09:06:11;;;;;;;7.40;6.70;;;;;;;22.43;33.34;101132.44;109594;1262;21975;-76
2022/04/27 09:08:55;;;;;;;12.70;10.30;;;;;;;22.48;31.63;101130.34;109767;1262;21970;-75
2022/04/27 09:11:29;;;;;;;12.00;7.80;;;;;;;22.39;31.05;101132.05;109755;1262;21994;-76
2022/04/27 09:14:00;;;;;;;;;;;;;;;22.36;30.80;101131.63;109982;1258;23708;-76
2022/04/27 09:22:57;;;;;;;9.30;7.40;;;;;;;21.63;30.20;101132.38;110004;1260;22986;-75
2022/04/27 09:25:36;;;;;;;9.10;7.20;;;;;;;21.29;30.45;101128.39;109822;1261;22286;-76
2022/04/27 09:28:31;;;;;;;7.10;5.50;;;;;;;21.00;30.51;101128.48;109974;1260;23650;-76
2022/04/27 09:31:01;;;;;;;7.60;6.10;;;;;;;20.66;30.35;101129.27;109980;1259;23998;-76
2022/04/27 09:33:38;;;;;;;7.20;6.20;;;;;;;20.20;30.36;101131.70;110129;1260;21973;-77
2022/04/27 09:36:23;;;;;;;8.20;6.40;;;;;;;19.71;30.46;101129.55;110215;1258;21988;-76
2022/04/27 09:38:55;;;;;;;6.30;5.60;;;;;;;19.26;30.92;101125.53;110486;1252;23033;-76
2022/04/27 09:41:42;;;;;;;10.60;5.90;;;;;;;19.04;31.29;101126.83;110556;1251;22427;-75
2022/04/27 09:44:34;;;;;;;6.00;4.30;;;;;;;18.86;31.34;101124.88;110593;1252;21962;-76
2022/04/27 09:47:05;;;;;;;6.30;3.60;;;;;;;18.67;31.36;101125.80;110569;1252;21967;-75
2022/04/27 09:49:43;;;;;;;8.50;5.40;;;;;;;18.54;31.47;101121.60;110488;1252;23652;-76
2022/04/27 09:52:15;;;;;;;4.10;3.70;;;;;;;18.42;31.26;101124.04;110593;1252;21959;-76
2022/04/27 09:54:46;;;;;;;4.40;3.60;;;;;;;18.22;30.86;101127.34;110287;1252;23679;-76
2022/04/27 09:57:19;;;;;;;6.50;3.20;;;;;;;17.89;30.64;101125.55;110550;1252;22206;-76
2022/04/27 09:59:48;;;;;;;6.70;4.30;;;;;;;17.62;31.02;101127.95;110555;1252;21968;-76
2022/04/27 10:02:30;;;;;;;7.40;4.30;;;;;;;17.44;31.46;101124.20;110509;1252;22170;-76
2022/04/27 10:05:01;;;;;;;4.20;3.60;;;;;;;17.38;31.67;101123.46;110022;1258;21976;-76
2022/04/27 10:07:32;;;;;;;4.10;2.90;;;;;;;17.36;31.47;101123.77;110299;1257;21973;-76
2022/04/27 10:10:05;;;;;;;8.60;3.30;;;;;;;17.32;31.03;101123.49;110308;1259;23104;-76
2022/04/27 10:12:39;;;;;;;5.50;3.60;;;;;;;17.30;31.18;101123.27;110218;1258;21966;-76
2022/04/27 10:15:08;;;;;;;5.00;3.30;;;;;;;17.32;31.24;101125.64;110503;1256;21976;-76
2022/04/27 10:17:39;;;;;;;8.00;4.30;;;;;;;17.36;31.02;101125.71;110107;1257;23036;-77
2022/04/27 10:20:30;;;;;;;7.50;3.30;;;;;;;17.43;30.89;101125.22;110543;1256;21951;-76
2022/04/27 10:23:32;;;;;;;4.50;3.40;;;;;;;17.64;31.25;101128.01;110175;1252;22980;-76
2022/04/27 10:26:12;;;;;;;3.80;3.40;;;;;;;18.21;31.92;101128.38;110515;1252;21975;-76
2022/04/27 10:28:47;;;;;;;7.20;3.60;;;;;;;18.94;31.17;101125.78;110574;1252;22981;-77
2022/04/27 10:31:48;;;;;;;6.70;3.60;;;;;;;19.47;29.62;101128.60;110728;1253;22958;-76
2022/04/27 10:34:19;;;;;;;4.80;2.80;;;;;;;19.91;28.95;101131.08;110556;1252;22936;-76
2022/04/27 10:36:54;;;;;;;9.60;4.40;;;;;;;20.09;28.02;101130.21;110580;1252;22848;-75
2022/04/27 10:39:34;;;;;;;6.40;3.80;;;;;;;20.01;27.66;101128.95;110612;1252;23338;-76
2022/04/27 10:42:03;;;;;;;4.90;3.50;;;;;;;19.85;27.62;101132.25;110594;1252;23790;-75
2022/04/27 10:44:50;;;;;;;7.50;3.50;;;;;;;19.64;27.75;101130.59;110532;1252;21971;-76
2022/04/27 10:47:25;;;;;;;5.30;4.20;;;;;;;19.38;27.61;101129.27;110619;1252;23596;-76
2022/04/27 10:50:13;;;;;;;7.20;5.30;;;;;;;19.05;27.87;101132.33;110479;1252;23693;-75
2022/04/27 10:52:51;;;;;;;7.10;4.20;;;;;;;18.74;28.43;101132.68;110691;1252;22732;-75
2022/04/27 10:55:33;;;;;;;5.40;3.00;;;;;;;18.51;28.68;101133.98;110503;1252;23033;-77
2022/04/27 10:58:37;;;;;;;4.80;4.00;;;;;;;18.18;28.71;101131.22;110638;1252;22011;-75
2022/04/27 11:01:12;;;;;;;5.20;4.70;;;;;;;17.88;29.01;101137.06;110443;1252;21959;-76
2022/04/27 11:03:41;;;;;;;5.70;3.80;;;;;;;17.69;29.36;101142.27;110716;1252;21977;-75
2022/04/27 11:06:14;;;;;;;6.40;4.20;;;;;;;17.57;29.60;101139.54;110403;1252;22071;-77
2022/04/27 11:09:50;;;;;;;5.10;4.50;;;;;;;17.41;29.71;101137.16;110479;1252;23108;-77
2022/04/27 11:12:19;;;;;;;6.60;4.50;;;;;;;17.14;29.91;101138.25;109937;1261;22004;-76
2022/04/27 11:14:57;;;;;;;8.60;6.40;;;;;;;16.98;30.33;101142.67;109675;1264;22333;-75
2022/04/27 11:17:29;;;;;;;13.10;5.80;;;;;;;16.90;30.60;101141.35;108979;1270;22112;-76
2022/04/27 11:19:58;;;;;;;8.40;5.40;;;;;;;16.83;30.64;101142.92;108768;1271;22014;-77
2022/04/27 11:22:28;;;;;;;7.60;4.90;;;;;;;16.79;30.89;101146.00;108873;1270;24389;-76
2022/04/27 11:24:59;;;;;;;7.80;4.80;;;;;;;16.75;31.15;101145.05;108796;1270;23644;-76
2022/04/27 11:27:32;;;;;;;9.90;4.90;;;;;;;16.72;31.42;101141.76;108740;1270;21983;-76
2022/04/27 11:30:04;;;;;;;5.90;5.00;;;;;;;16.74;31.65;101144.12;108837;1270;22039;-76
2022/04/27 11:32:35;;;;;;;6.70;5.70;;;;;;;16.72;31.38;101143.03;108789;1267;22866;-76
2022/04/27 11:35:05;;;;;;;6.50;4.60;;;;;;;16.68;31.52;101146.85;109258;1261;22739;-75
2022/04/27 11:37:37;;;;;;;5.90;4.20;;;;;;;16.71;31.71;101146.17;109925;1261;22214;-76
2022/04/27 11:40:17;;;;;;;5.00;3.60;;;;;;;16.78;31.86;101146.47;109767;1261;23047;-75
2022/04/27 11:42:48;;;;;;;5.00;4.10;;;;;;;16.84;31.71;101146.91;109763;1261;23572;-76
2022/04/27 11:45:25;;;;;;;5.10;3.60;;;;;;;16.88;31.42;101146.59;109682;1258;21985;-76
2022/04/27 11:48:03;;;;;;;8.30;3.60;;;;;;;16.96;31.52;101147.40;109942;1260;23554;-76
2022/04/27 11:50:41;;;;;;;8.60;4.80;;;;;;;17.06;31.44;101146.23;109783;1260;22033;-76
2022/04/27 11:53:23;;;;;;;3.80;3.40;;;;;;;17.21;31.43;101145.58;110003;1260;23633;-76
2022/04/27 11:55:54;;;;;;;7.20;3.70;;;;;;;17.33;31.05;101150.79;109911;1261;21975;-76
2022/04/27 11:58:28;;;;;;;4.20;3.60;;;;;;;17.37;30.80;101153.82;109720;1261;23697;-77
2022/04/27 12:00:59;;;;;;;5.90;3.90;;;;;;;17.32;30.56;101148.73;109939;1260;23726;-77
2022/04/27 12:03:30;;;;;;;6.80;4.30;;;;;;;17.20;30.41;101149.77;109695;1260;23041;-76
2022/04/27 12:05:59;;;;;;;5.20;4.30;;;;;;;17.09;30.50;101147.58;110078;1255;21963;-76
2022/04/27 12:08:28;;;;;;;6.70;4.50;;;;;;;16.99;30.57;101147.52;110480;1255;21959;-76
2022/04/27 12:10:58;;;;;;;5.60;4.20;;;;;;;16.87;30.71;101150.14;110527;1255;23798;-76
2022/04/27 12:13:28;;;;;;;5.30;4.10;;;;;;;16.78;31.01;101153.24;110666;1254;22588;-76
2022/04/27 12:15:58;;;;;;;7.20;4.70;;;;;;;16.68;31.09;101152.27;110464;1254;22506;-75